Time;durP1;ratioP1;P1;durP2;ratioP2;P2;SDS_P1;SDS_P2;PMS_P1;PMS_P2;Temp;Humidity;BMP_temperature;BMP_pressure;BME280_temperature;BME280_humidity;BME280_pressure;Samples;Min_cycle;Max_cycle;Signal;HPM_P1;HPM_P2
2024/03/16 00:00:31;;;;;;;4.20;2.20;;;10.60;99.90;;;;;;4977663;28;20233;-75
2024/03/16 00:02:59;;;;;;;3.50;2.23;;;10.70;99.90;;;;;;4978039;28;20226;-75
2024/03/16 00:05:28;;;;;;;2.90;2.53;;;10.70;99.90;;;;;;4979532;28;20225;-75
2024/03/16 00:07:53;;;;;;;3.67;2.43;;;10.70;99.90;;;;;;4973064;28;20535;-75
2024/03/16 00:10:19;;;;;;;2.43;2.23;;;10.60;99.90;;;;;;4965564;28;20465;-74
2024/03/16 00:12:45;;;;;;;2.60;2.20;;;10.60;99.90;;;;;;4975928;28;20305;-73
2024/03/16 00:15:11;;;;;;;3.07;2.37;;;10.60;99.90;;;;;;4976175;28;20225;-75
2024/03/16 00:17:37;;;;;;;4.43;2.70;;;10.70;99.90;;;;;;4978749;28;20840;-75
2024/03/16 00:20:07;;;;;;;4.90;2.73;;;10.70;99.90;;;;;;4954367;28;20210;-76
2024/03/16 00:22:33;;;;;;;2.87;2.30;;;10.60;99.90;;;;;;4979179;28;20225;-75
2024/03/16 00:25:00;;;;;;;3.47;2.23;;;10.70;99.90;;;;;;4962571;28;20480;-76
2024/03/16 00:27:25;;;;;;;2.30;2.10;;;10.70;99.90;;;;;;4983237;28;20461;-76
2024/03/16 00:29:51;;;;;;;2.70;2.20;;;10.70;99.90;;;;;;4972571;28;20985;-74
2024/03/16 00:32:17;;;;;;;2.50;2.23;;;10.80;99.90;;;;;;4982557;28;20241;-76
2024/03/16 00:34:43;;;;;;;4.80;2.30;;;10.80;99.90;;;;;;4958727;28;20217;-75
2024/03/16 00:37:09;;;;;;;2.27;1.80;;;10.80;99.90;;;;;;4979494;28;20481;-76
2024/03/16 00:39:35;;;;;;;3.17;1.77;;;10.70;99.90;;;;;;4984301;28;20232;-75
2024/03/16 00:42:01;;;;;;;1.80;1.70;;;10.80;99.90;;;;;;4986282;28;20218;-76
2024/03/16 00:44:30;;;;;;;2.63;2.00;;;10.80;99.90;;;;;;4983784;28;20483;-76
2024/03/16 00:46:55;;;;;;;2.67;2.40;;;10.80;99.90;;;;;;4982156;28;21005;-76
2024/03/16 00:49:21;;;;;;;1.90;1.80;;;10.70;99.90;;;;;;4987810;28;20453;-76
2024/03/16 00:51:47;;;;;;;4.43;2.70;;;10.80;99.90;;;;;;4987480;28;20216;-76
2024/03/16 00:54:12;;;;;;;2.63;2.43;;;10.90;99.90;;;;;;4989781;28;20324;-75
2024/03/16 00:56:38;;;;;;;2.83;2.53;;;10.90;99.90;;;;;;4971011;28;20224;-75
2024/03/16 00:59:04;;;;;;;4.37;3.10;;;10.80;99.90;;;;;;4984927;28;20224;-75
2024/03/16 01:01:33;;;;;;;5.57;2.60;;;10.80;99.90;;;;;;4985636;28;20468;-75
2024/03/16 01:04:03;;;;;;;3.10;2.47;;;10.80;99.90;;;;;;4980128;28;20273;-76
2024/03/16 01:06:28;;;;;;;4.00;2.70;;;10.80;99.90;;;;;;4982668;28;20454;-75
2024/03/16 01:08:54;;;;;;;2.60;2.40;;;10.80;99.90;;;;;;4987269;28;20445;-75
2024/03/16 01:11:22;;;;;;;3.93;2.63;;;10.70;99.90;;;;;;4986108;28;20221;-75
2024/03/16 01:13:48;;;;;;;4.37;3.20;;;10.60;99.90;;;;;;4985715;28;20502;-75
2024/03/16 01:16:14;;;;;;;4.57;2.80;;;10.60;99.90;;;;;;4988473;28;20539;-76
2024/03/16 01:18:40;;;;;;;4.80;3.13;;;10.60;99.90;;;;;;4968414;28;20294;-75
2024/03/16 01:21:06;;;;;;;6.43;2.60;;;10.70;99.90;;;;;;4976207;28;21048;-75
2024/03/16 01:23:33;;;;;;;4.23;2.40;;;10.70;99.90;;;;;;4970007;28;20225;-75
2024/03/16 01:25:59;;;;;;;3.90;2.97;;;10.70;99.90;;;;;;4982857;28;20253;-75
2024/03/16 01:28:25;;;;;;;3.00;2.43;;;10.80;99.90;;;;;;4969944;28;20462;-76
2024/03/16 01:30:51;;;;;;;8.17;2.30;;;10.80;99.90;;;;;;4973214;28;20484;-75
2024/03/16 01:33:18;;;;;;;6.10;2.60;;;10.90;99.90;;;;;;4991452;28;20237;-76
2024/03/16 01:35:44;;;;;;;4.37;2.97;;;10.90;99.90;;;;;;4973192;28;20536;-75
2024/03/16 01:38:10;;;;;;;2.83;2.63;;;10.90;99.90;;;;;;4989373;28;20445;-74
2024/03/16 01:40:36;;;;;;;3.10;2.73;;;10.80;99.90;;;;;;4986077;28;20501;-74
2024/03/16 01:43:02;;;;;;;2.93;2.67;;;10.70;99.90;;;;;;4987910;28;20233;-75
2024/03/16 01:45:28;;;;;;;3.00;2.70;;;10.70;99.90;;;;;;4982508;28;20226;-75
2024/03/16 01:47:54;;;;;;;3.17;2.83;;;10.80;99.90;;;;;;4967167;28;20448;-75
2024/03/16 01:50:21;;;;;;;4.03;2.80;;;10.70;99.90;;;;;;4982436;28;20500;-74
2024/03/16 01:52:48;;;;;;;3.67;2.83;;;10.70;99.90;;;;;;4981416;28;21014;-75
2024/03/16 01:55:15;;;;;;;3.10;2.73;;;10.70;99.90;;;;;;4965016;28;20469;-75
2024/03/16 01:57:41;;;;;;;3.20;2.80;;;10.70;99.90;;;;;;4982524;28;20501;-76
2024/03/16 02:00:11;;;;;;;3.73;2.20;;;10.80;99.90;;;;;;4967011;28;20503;-75
2024/03/16 02:02:38;;;;;;;4.40;2.57;;;10.90;99.90;;;;;;4971194;28;20292;-76
2024/03/16 02:05:05;;;;;;;4.27;2.97;;;10.80;99.90;;;;;;4963409;28;20461;-75
2024/03/16 02:07:36;;;;;;;3.33;2.70;;;10.80;99.90;;;;;;4968772;28;20458;-75
2024/03/16 02:10:04;;;;;;;4.13;3.13;;;10.80;99.90;;;;;;4978677;28;20978;-74
2024/03/16 02:12:30;;;;;;;4.07;2.40;;;10.70;99.90;;;;;;4967033;28;20545;-75
2024/03/16 02:14:56;;;;;;;8.00;3.87;;;10.60;99.90;;;;;;4980093;28;20464;-75
2024/03/16 02:17:22;;;;;;;8.27;4.40;;;10.60;99.90;;;;;;4966034;28;20465;-75
2024/03/16 02:19:48;;;;;;;3.43;3.03;;;10.60;99.90;;;;;;4965586;28;20460;-75
2024/03/16 02:22:14;;;;;;;5.17;2.73;;;10.60;99.90;;;;;;4978954;28;20555;-76
2024/03/16 02:24:40;;;;;;;3.33;2.77;;;10.50;99.90;;;;;;4981221;28;20226;-76
2024/03/16 02:27:09;;;;;;;6.07;3.50;;;10.30;99.90;;;;;;4980480;28;20464;-75
2024/03/16 02:29:37;;;;;;;2.80;2.60;;;10.40;99.90;;;;;;4983468;28;20229;-77
2024/03/16 02:32:06;;;;;;;5.00;2.67;;;10.30;99.90;;;;;;4961565;28;20537;-75
2024/03/16 02:34:36;;;;;;;2.90;2.60;;;10.30;99.90;;;;;;4984101;28;20549;-75
2024/03/16 02:37:05;;;;;;;3.50;2.47;;;10.30;99.90;;;;;;4965894;28;20530;-76
2024/03/16 02:39:35;;;;;;;4.43;3.60;;;10.30;99.90;;;;;;4967910;28;20462;-76
2024/03/16 02:42:04;;;;;;;4.07;2.73;;;10.30;99.90;;;;;;4976509;28;20503;-75
2024/03/16 02:44:30;;;;;;;3.00;2.70;;;10.20;99.90;;;;;;4963283;28;20465;-75
2024/03/16 02:46:57;;;;;;;2.70;2.50;;;10.30;99.90;;;;;;4969605;28;20461;-76
2024/03/16 02:49:23;;;;;;;3.90;2.80;;;10.30;99.90;;;;;;4963755;28;20494;-76
2024/03/16 02:51:50;;;;;;;3.33;2.47;;;10.40;99.90;;;;;;4978634;28;20896;-76
2024/03/16 02:54:16;;;;;;;5.83;2.77;;;10.40;99.90;;;;;;4975050;28;20576;-76
2024/03/16 02:56:42;;;;;;;6.10;2.63;;;10.30;99.90;;;;;;4964492;28;20461;-75
2024/03/16 02:59:09;;;;;;;3.60;2.27;;;10.20;99.90;;;;;;4972234;28;20825;-75
2024/03/16 03:01:36;;;;;;;2.77;2.17;;;10.20;99.90;;;;;;4975809;28;20456;-75
2024/03/16 03:04:05;;;;;;;2.40;2.20;;;10.30;99.90;;;;;;4976944;28;20469;-76
2024/03/16 03:06:31;;;;;;;2.53;2.20;;;10.20;99.90;;;;;;4966728;28;20492;-75
2024/03/16 03:08:56;;;;;;;2.30;1.90;;;10.00;99.90;;;;;;4960614;28;20587;-75
2024/03/16 03:11:22;;;;;;;2.50;2.30;;;10.10;99.90;;;;;;4960350;28;20253;-75
2024/03/16 03:13:47;;;;;;;2.60;2.33;;;10.00;99.90;;;;;;4980427;28;20237;-75
2024/03/16 03:16:19;;;;;;;3.20;2.30;;;10.00;99.90;;;;;;4960751;28;20224;-75
2024/03/16 03:18:49;;;;;;;2.20;2.00;;;9.90;99.90;;;;;;4984358;28;20229;-75
2024/03/16 03:21:15;;;;;;;2.10;2.00;;;10.00;99.90;;;;;;4963670;28;20452;-75
2024/03/16 03:23:41;;;;;;;3.10;1.80;;;10.00;99.90;;;;;;4979606;28;20532;-75
2024/03/16 03:26:08;;;;;;;2.20;2.00;;;9.90;99.90;;;;;;4966124;28;20568;-76
2024/03/16 03:28:35;;;;;;;1.90;1.80;;;9.90;99.90;;;;;;4967028;28;20460;-75
2024/03/16 03:31:02;;;;;;;3.20;2.00;;;10.00;99.90;;;;;;4976775;28;20465;-75
2024/03/16 03:33:27;;;;;;;2.30;2.10;;;10.00;99.90;;;;;;4982397;28;20469;-75
2024/03/16 03:35:53;;;;;;;2.27;1.97;;;9.90;99.90;;;;;;4980815;28;20453;-76
2024/03/16 03:38:19;;;;;;;9.30;2.67;;;10.00;99.90;;;;;;4972059;28;20214;-75
2024/03/16 03:40:44;;;;;;;2.77;1.60;;;10.00;99.90;;;;;;4983370;28;20324;-74
2024/03/16 03:43:21;;;;;;;1.93;1.73;;;10.10;99.90;;;;;;4965978;28;20277;-75
2024/03/16 03:50:51;;;;;;;2.37;1.90;;;10.00;99.90;;;;;;4982416;28;21018;-74
2024/03/16 03:53:19;;;;;;;1.93;1.80;;;9.90;99.90;;;;;;4975000;28;20472;-75
2024/03/16 03:55:44;;;;;;;1.30;1.20;;;9.90;99.90;;;;;;4972496;28;21072;-76
2024/03/16 03:58:10;;;;;;;1.70;1.60;;;9.90;99.90;;;;;;4977859;28;20469;-76
2024/03/16 04:00:36;;;;;;;1.80;1.40;;;9.90;99.90;;;;;;4958167;28;20225;-76
2024/03/16 04:03:05;;;;;;;1.90;1.20;;;9.80;99.90;;;;;;4955373;28;20229;-75
2024/03/16 04:05:31;;;;;;;1.60;1.50;;;9.80;99.90;;;;;;4978215;28;20247;-74
2024/03/16 04:07:56;;;;;;;2.30;1.40;;;9.80;99.90;;;;;;4964358;28;20989;-75
2024/03/16 04:10:22;;;;;;;1.50;1.40;;;9.70;99.90;;;;;;4978666;28;20300;-74
2024/03/16 04:12:48;;;;;;;2.20;1.57;;;9.80;99.90;;;;;;4962275;28;20225;-75
2024/03/16 04:15:14;;;;;;;1.20;1.13;;;9.70;99.90;;;;;;4945651;28;20213;-75
2024/03/16 04:17:40;;;;;;;1.93;1.70;;;9.70;99.90;;;;;;4965400;28;20320;-75
2024/03/16 04:20:10;;;;;;;3.10;1.73;;;9.70;99.90;;;;;;4978848;28;21056;-75
2024/03/16 04:22:39;;;;;;;1.57;1.47;;;9.70;99.90;;;;;;4976333;28;20241;-74
2024/03/16 04:25:09;;;;;;;8.30;2.60;;;9.70;99.90;;;;;;4967983;28;20467;-74
2024/03/16 04:27:35;;;;;;;3.43;2.03;;;9.70;99.90;;;;;;4980174;28;20991;-75
2024/03/16 04:30:01;;;;;;;2.37;2.07;;;9.70;99.90;;;;;;4976373;28;20533;-75
2024/03/16 04:32:27;;;;;;;3.60;1.93;;;9.70;99.90;;;;;;4968397;28;20460;-75
2024/03/16 04:34:53;;;;;;;3.50;2.63;;;9.70;99.90;;;;;;4977520;28;20469;-76
2024/03/16 04:37:19;;;;;;;6.83;2.37;;;9.70;99.90;;;;;;4982940;28;20259;-75
2024/03/16 04:39:45;;;;;;;4.63;2.30;;;9.70;99.90;;;;;;4978503;28;21006;-76
2024/03/16 04:42:11;;;;;;;2.87;2.60;;;9.70;99.90;;;;;;4976099;28;20707;-74
2024/03/16 04:44:37;;;;;;;2.47;2.27;;;9.70;99.90;;;;;;4978537;28;20480;-75
2024/03/16 04:47:06;;;;;;;2.07;1.80;;;9.70;99.90;;;;;;4976418;28;20492;-76
2024/03/16 04:49:32;;;;;;;2.70;2.50;;;9.70;99.90;;;;;;4980673;28;20273;-75
2024/03/16 04:51:58;;;;;;;3.20;2.20;;;9.70;99.90;;;;;;4973482;28;20457;-74
2024/03/16 04:54:23;;;;;;;6.40;2.57;;;9.70;99.90;;;;;;4967183;28;20485;-76
2024/03/16 04:56:49;;;;;;;2.90;2.00;;;9.70;99.90;;;;;;4962928;28;20222;-73
2024/03/16 04:59:15;;;;;;;2.50;2.20;;;9.70;99.90;;;;;;4967184;28;20334;-76
2024/03/16 05:01:41;;;;;;;3.70;2.07;;;9.70;99.90;;;;;;4967607;28;20225;-75
2024/03/16 05:04:09;;;;;;;4.83;2.13;;;9.70;99.90;;;;;;4962154;28;20218;-75
2024/03/16 05:06:35;;;;;;;3.87;2.70;;;9.70;99.90;;;;;;4980501;28;20638;-74
2024/03/16 05:09:05;;;;;;;3.20;2.60;;;9.70;99.90;;;;;;4969950;28;20453;-75
2024/03/16 05:11:31;;;;;;;3.10;2.53;;;9.70;99.90;;;;;;4987543;28;20217;-75
2024/03/16 05:13:59;;;;;;;4.10;2.87;;;9.70;99.90;;;;;;4982543;28;20476;-75
2024/03/16 05:16:25;;;;;;;3.50;1.90;;;9.60;99.90;;;;;;4981524;28;20885;-75
2024/03/16 05:18:51;;;;;;;4.10;2.33;;;9.70;99.90;;;;;;4984175;28;20454;-75
2024/03/16 05:21:16;;;;;;;2.60;2.30;;;9.70;99.90;;;;;;4966123;28;20307;-75
2024/03/16 05:23:45;;;;;;;4.07;2.30;;;9.70;99.90;;;;;;4979700;28;20607;-75
2024/03/16 05:26:14;;;;;;;3.37;2.70;;;9.70;99.90;;;;;;4967536;28;20218;-75
2024/03/16 05:28:40;;;;;;;2.20;2.00;;;9.60;99.90;;;;;;4963967;28;20462;-75
2024/03/16 05:31:07;;;;;;;2.90;2.60;;;9.70;99.90;;;;;;4977917;28;20855;-75
2024/03/16 05:33:34;;;;;;;3.90;2.80;;;9.70;99.90;;;;;;4966476;28;20242;-75
2024/03/16 05:36:02;;;;;;;4.43;2.50;;;9.70;99.90;;;;;;4980325;28;20576;-75
2024/03/16 05:38:27;;;;;;;2.70;2.40;;;9.70;99.90;;;;;;4980109;28;20470;-75
2024/03/16 05:40:53;;;;;;;3.10;2.57;;;9.70;99.90;;;;;;4978190;28;20494;-76
2024/03/16 05:43:19;;;;;;;3.10;2.80;;;9.70;99.90;;;;;;4960354;28;20704;-74
2024/03/16 05:45:49;;;;;;;3.00;2.63;;;9.70;99.90;;;;;;4982733;28;20218;-75
2024/03/16 05:48:15;;;;;;;4.63;3.10;;;9.70;99.90;;;;;;4963630;28;20230;-75
2024/03/16 05:50:41;;;;;;;2.63;2.40;;;9.70;99.90;;;;;;4977318;28;20963;-76
2024/03/16 05:53:06;;;;;;;3.13;2.20;;;9.70;99.90;;;;;;4978069;28;20309;-75
2024/03/16 05:55:32;;;;;;;3.73;2.70;;;9.70;99.90;;;;;;4961788;28;20703;-75
2024/03/16 05:57:57;;;;;;;3.40;2.87;;;9.70;99.90;;;;;;4977175;28;20218;-75
2024/03/16 06:00:23;;;;;;;4.57;2.80;;;9.70;99.90;;;;;;4980188;28;20223;-76
2024/03/16 06:02:49;;;;;;;6.20;2.97;;;9.70;99.90;;;;;;4964748;28;20237;-75
2024/03/16 06:05:15;;;;;;;3.60;3.00;;;9.70;99.90;;;;;;4961827;28;20229;-75
2024/03/16 06:07:42;;;;;;;4.00;2.90;;;9.70;99.90;;;;;;4962311;28;20223;-76
2024/03/16 06:10:10;;;;;;;3.37;2.87;;;9.70;99.90;;;;;;4968993;28;20609;-75
2024/03/16 06:12:37;;;;;;;3.10;2.80;;;9.70;99.90;;;;;;4978786;28;20481;-76
2024/03/16 06:15:05;;;;;;;3.47;2.40;;;9.70;99.90;;;;;;4960846;28;237442;-75
2024/03/16 06:17:31;;;;;;;2.73;2.53;;;9.70;99.90;;;;;;4967577;28;20468;-76
2024/03/16 06:19:57;;;;;;;2.73;2.53;;;9.70;99.90;;;;;;4987344;28;20457;-75
2024/03/16 06:22:22;;;;;;;5.00;3.10;;;9.70;99.90;;;;;;4983286;28;20461;-75
2024/03/16 06:24:48;;;;;;;2.90;2.60;;;9.70;99.90;;;;;;4972410;28;20223;-75
2024/03/16 06:27:18;;;;;;;2.37;2.17;;;9.70;99.90;;;;;;4971811;28;20222;-75
2024/03/16 06:29:52;;;;;;;3.17;2.87;;;9.80;99.90;;;;;;4970397;28;20221;-75
2024/03/16 06:32:20;;;;;;;2.93;2.60;;;9.80;99.90;;;;;;4987376;28;20492;-76
2024/03/16 06:34:48;;;;;;;3.50;2.87;;;9.80;99.90;;;;;;4967142;28;20567;-74
2024/03/16 06:37:13;;;;;;;3.53;2.83;;;9.90;99.90;;;;;;4958903;28;20595;-75
2024/03/16 06:39:39;;;;;;;3.60;2.90;;;9.90;99.90;;;;;;4963271;28;20587;-76
2024/03/16 06:42:05;;;;;;;3.23;2.73;;;9.90;99.90;;;;;;4979111;28;20230;-76
2024/03/16 06:44:30;;;;;;;4.37;3.00;;;9.90;99.90;;;;;;4975721;28;20224;-76
2024/03/16 06:46:56;;;;;;;3.00;2.40;;;10.00;99.90;;;;;;4965077;28;20237;-75
2024/03/16 06:49:21;;;;;;;3.50;2.97;;;10.00;99.90;;;;;;4984291;28;20222;-75
2024/03/16 06:51:47;;;;;;;2.87;2.63;;;10.00;99.90;;;;;;4963562;28;20249;-76
2024/03/16 06:54:13;;;;;;;5.43;2.90;;;10.00;99.90;;;;;;4963926;28;20284;-75
2024/03/16 06:56:39;;;;;;;4.80;3.40;;;10.10;99.90;;;;;;4981657;28;20221;-76
2024/03/16 06:59:04;;;;;;;5.43;3.50;;;10.10;99.90;;;;;;4960801;28;20309;-76
2024/03/16 07:01:30;;;;;;;3.93;3.30;;;10.00;99.90;;;;;;4978162;28;20465;-75
2024/03/16 07:03:56;;;;;;;5.23;4.53;;;10.10;99.90;;;;;;4975873;28;20249;-76
2024/03/16 07:06:21;;;;;;;3.70;2.90;;;10.10;99.90;;;;;;4979893;28;20245;-76
2024/03/16 07:08:47;;;;;;;2.43;2.23;;;10.10;99.90;;;;;;4968854;28;20221;-75
2024/03/16 07:11:13;;;;;;;6.20;2.90;;;10.10;99.90;;;;;;4975365;28;20268;-76
2024/03/16 07:13:38;;;;;;;3.33;2.43;;;10.10;99.90;;;;;;4976683;28;20743;-75
2024/03/16 07:16:09;;;;;;;4.17;2.80;;;10.20;99.90;;;;;;4980577;28;20281;-75
2024/03/16 07:18:35;;;;;;;3.73;2.80;;;10.30;99.90;;;;;;4984150;28;20222;-76
2024/03/16 07:21:01;;;;;;;5.00;2.40;;;10.30;99.90;;;;;;4963357;28;20494;-76
2024/03/16 07:23:27;;;;;;;3.80;2.60;;;10.30;99.90;;;;;;4967628;28;20497;-76
2024/03/16 07:25:52;;;;;;;2.40;2.20;;;10.40;99.90;;;;;;4981066;28;20597;-75
2024/03/16 07:28:18;;;;;;;5.37;2.63;;;10.50;99.90;;;;;;4968141;28;20234;-75
2024/03/16 07:30:44;;;;;;;5.30;2.70;;;10.50;99.90;;;;;;4982100;28;20268;-75
2024/03/16 07:33:11;;;;;;;4.23;2.83;;;10.60;99.90;;;;;;4977714;28;20275;-76
2024/03/16 07:35:39;;;;;;;4.50;2.27;;;10.60;99.90;;;;;;4979013;28;20251;-76
2024/03/16 07:38:05;;;;;;;2.03;1.83;;;10.70;99.90;;;;;;4973616;28;20493;-76
2024/03/16 07:40:31;;;;;;;2.20;1.53;;;10.70;99.90;;;;;;4979079;28;20517;-75
2024/03/16 07:42:57;;;;;;;1.23;1.13;;;10.80;99.90;;;;;;4960718;28;20221;-74
2024/03/16 07:45:23;;;;;;;1.37;1.20;;;10.70;99.90;;;;;;4978494;28;20520;-74
2024/03/16 07:47:48;;;;;;;1.30;1.13;;;10.80;99.90;;;;;;4971377;28;20226;-75
2024/03/16 07:50:14;;;;;;;11.40;2.23;;;10.80;99.90;;;;;;4985774;28;20652;-75
2024/03/16 07:52:39;;;;;;;1.87;1.73;;;11.00;99.90;;;;;;4966558;28;20269;-75
2024/03/16 07:55:06;;;;;;;2.37;1.93;;;11.00;99.90;;;;;;4985268;28;20225;-75
2024/03/16 07:57:32;;;;;;;1.53;1.20;;;11.10;99.90;;;;;;4987246;28;20669;-75
2024/03/16 07:59:58;;;;;;;2.20;1.30;;;11.20;99.90;;;;;;4985206;28;21010;-75
2024/03/16 08:02:24;;;;;;;1.67;1.33;;;11.30;99.90;;;;;;4970518;28;20493;-75
2024/03/16 08:04:50;;;;;;;1.97;1.60;;;11.40;99.90;;;;;;4984020;28;20265;-75
2024/03/16 08:07:16;;;;;;;2.10;1.47;;;11.40;99.90;;;;;;4979242;28;20477;-76
2024/03/16 08:09:41;;;;;;;1.50;1.33;;;11.30;99.90;;;;;;4979871;28;20218;-75
2024/03/16 08:12:07;;;;;;;1.50;1.30;;;11.30;99.90;;;;;;4975587;28;20222;-76
2024/03/16 08:14:36;;;;;;;1.43;1.33;;;11.60;99.90;;;;;;4964380;28;20222;-75
2024/03/16 08:17:04;;;;;;;1.27;1.17;;;11.70;99.90;;;;;;4979007;28;20885;-75
2024/03/16 08:19:31;;;;;;;2.00;1.20;;;11.70;99.90;;;;;;4962975;28;20560;-76
2024/03/16 08:21:57;;;;;;;1.47;0.80;;;11.70;99.90;;;;;;4958840;28;20568;-76
2024/03/16 08:24:23;;;;;;;1.30;1.20;;;11.70;99.90;;;;;;4981773;28;20564;-76
2024/03/16 08:26:48;;;;;;;0.70;0.70;;;11.70;99.90;;;;;;4966200;28;20218;-76
2024/03/16 08:29:14;;;;;;;1.40;1.10;;;11.80;99.90;;;;;;4958713;28;20218;-76
2024/03/16 08:31:40;;;;;;;0.63;0.63;;;11.80;99.90;;;;;;4971675;28;20300;-76
2024/03/16 08:34:05;;;;;;;1.90;0.80;;;11.90;99.90;;;;;;4989521;28;20214;-75
2024/03/16 08:36:31;;;;;;;0.80;0.80;;;12.00;99.90;;;;;;4970401;28;20219;-75
2024/03/16 08:38:56;;;;;;;1.13;0.80;;;12.10;99.90;;;;;;4972574;28;20583;-76
2024/03/16 08:41:22;;;;;;;2.77;0.70;;;12.30;99.90;;;;;;4986355;28;20335;-75
2024/03/16 08:43:49;;;;;;;1.53;1.43;;;12.80;99.90;;;;;;4968893;28;20230;-75
2024/03/16 08:46:14;;;;;;;0.87;0.87;;;12.50;99.90;;;;;;4960836;28;20809;-76
2024/03/16 08:48:40;;;;;;;1.33;1.03;;;12.50;99.90;;;;;;4988577;28;20476;-76
2024/03/16 08:51:05;;;;;;;0.40;0.40;;;12.60;99.90;;;;;;4971601;28;20594;-77
2024/03/16 08:53:31;;;;;;;0.63;0.60;;;12.60;99.90;;;;;;4990272;28;20284;-76
2024/03/16 08:55:58;;;;;;;0.60;0.50;;;12.70;99.90;;;;;;4986568;28;20247;-76
2024/03/16 08:58:29;;;;;;;0.90;0.70;;;12.70;99.90;;;;;;4989581;28;20229;-76
2024/03/16 09:00:55;;;;;;;0.50;0.50;;;12.70;99.90;;;;;;4971153;28;21030;-76
2024/03/16 09:03:21;;;;;;;0.67;0.67;;;12.70;99.90;;;;;;4995965;28;20507;-75
2024/03/16 09:05:46;;;;;;;0.70;0.70;;;12.60;99.90;;;;;;4977035;28;20234;-76
2024/03/16 09:08:12;;;;;;;0.87;0.50;;;12.60;99.90;;;;;;4992123;28;20228;-76
2024/03/16 09:10:38;;;;;;;3.70;0.70;;;12.60;99.90;;;;;;4969910;28;20723;-76
2024/03/16 09:13:03;;;;;;;0.60;0.60;;;12.50;99.90;;;;;;4988453;28;20237;-76
2024/03/16 09:15:29;;;;;;;0.70;0.70;;;12.60;99.90;;;;;;4991827;28;20234;-75
2024/03/16 09:17:55;;;;;;;0.90;0.80;;;12.60;99.90;;;;;;4971441;28;20306;-76
2024/03/16 09:20:21;;;;;;;0.40;0.40;;;12.60;99.90;;;;;;4980738;28;20309;-76
2024/03/16 09:22:48;;;;;;;0.50;0.50;;;12.50;99.90;;;;;;4971142;28;20797;-75
2024/03/16 09:25:14;;;;;;;0.70;0.70;;;12.50;99.90;;;;;;4981692;28;20873;-76
2024/03/16 09:27:39;;;;;;;0.60;0.60;;;12.50;99.90;;;;;;4969918;28;20481;-76
2024/03/16 09:30:06;;;;;;;1.10;0.83;;;12.50;99.90;;;;;;4980902;28;20484;-75
2024/03/16 09:32:33;;;;;;;1.50;0.70;;;12.50;99.90;;;;;;4976318;28;20245;-73
2024/03/16 09:34:58;;;;;;;0.80;0.60;;;12.50;99.90;;;;;;4964442;28;20465;-76
2024/03/16 09:37:24;;;;;;;1.00;0.90;;;12.50;99.90;;;;;;4981279;28;20530;-75
2024/03/16 09:39:50;;;;;;;0.60;0.60;;;12.50;99.90;;;;;;4976794;28;20225;-76
2024/03/16 09:42:16;;;;;;;0.60;0.60;;;12.50;99.90;;;;;;4974139;28;20246;-76
2024/03/16 09:44:41;;;;;;;0.50;0.50;;;12.50;99.90;;;;;;4985102;28;20691;-76
2024/03/16 09:47:14;;;;;;;0.40;0.40;;;12.50;99.90;;;;;;4966240;28;20242;-76
2024/03/16 09:49:41;;;;;;;5.33;0.90;;;12.60;99.90;;;;;;4980679;28;20222;-76
2024/03/16 09:52:10;;;;;;;0.60;0.50;;;12.60;99.90;;;;;;4981674;28;20826;-76
2024/03/16 09:54:39;;;;;;;0.43;0.43;;;12.60;99.90;;;;;;4984173;28;20461;-75
2024/03/16 09:57:13;;;;;;;0.80;0.80;;;12.60;99.90;;;;;;4976941;28;20480;-76
2024/03/16 09:59:40;;;;;;;2.37;0.50;;;12.70;99.90;;;;;;4962638;28;20464;-77
2024/03/16 10:02:16;;;;;;;0.40;0.40;;;12.60;99.90;;;;;;4976017;28;20568;-76
2024/03/16 10:04:41;;;;;;;0.67;0.67;;;12.60;99.90;;;;;;4976646;28;20831;-76
2024/03/16 10:07:07;;;;;;;0.53;0.50;;;12.60;99.90;;;;;;4962053;28;20445;-77
2024/03/16 10:09:33;;;;;;;0.40;0.30;;;12.50;99.90;;;;;;4985405;28;20272;-76
2024/03/16 10:12:16;;;;;;;1.33;0.50;;;12.50;99.90;;;;;;4977127;28;20277;-75
2024/03/16 10:14:42;;;;;;;0.47;0.47;;;12.50;99.90;;;;;;4980796;28;20241;-76
2024/03/16 10:17:07;;;;;;;1.17;0.70;;;12.50;99.90;;;;;;4970009;28;20465;-76
2024/03/16 10:19:35;;;;;;;1.33;0.60;;;12.60;99.90;;;;;;4961920;28;20299;-76
2024/03/16 10:22:05;;;;;;;0.83;0.60;;;12.60;99.90;;;;;;4956299;28;20253;-76
2024/03/16 10:24:32;;;;;;;0.50;0.40;;;12.60;99.90;;;;;;4980190;28;20464;-76
2024/03/16 10:26:57;;;;;;;0.47;0.47;;;12.80;99.90;;;;;;4974090;28;20540;-75
2024/03/16 10:29:24;;;;;;;0.50;0.50;;;13.00;99.90;;;;;;4974414;28;20580;-75
2024/03/16 10:31:50;;;;;;;0.50;0.40;;;12.70;99.90;;;;;;4975550;28;20215;-76
2024/03/16 10:34:16;;;;;;;0.73;0.50;;;12.50;99.90;;;;;;4970406;28;20457;-76
2024/03/16 10:36:42;;;;;;;2.07;1.63;;;12.40;99.90;;;;;;4981184;28;20461;-77
2024/03/16 10:39:08;;;;;;;0.97;0.87;;;12.20;99.90;;;;;;4972230;28;20229;-76
2024/03/16 10:41:36;;;;;;;1.00;1.00;;;12.20;99.90;;;;;;4984684;28;20539;-76
2024/03/16 10:44:04;;;;;;;1.60;0.80;;;12.10;99.90;;;;;;4964802;28;20479;-76
2024/03/16 10:46:30;;;;;;;1.00;1.00;;;12.00;99.90;;;;;;4987038;28;20475;-76
2024/03/16 10:48:57;;;;;;;2.60;1.20;;;12.00;99.90;;;;;;4981897;28;20462;-77
2024/03/16 10:51:23;;;;;;;0.97;0.90;;;12.00;99.90;;;;;;4970780;28;21005;-76
2024/03/16 10:53:50;;;;;;;1.40;1.30;;;12.00;99.90;;;;;;4983466;28;20549;-76
2024/03/16 10:56:17;;;;;;;1.50;1.30;;;11.90;99.90;;;;;;4967754;28;20535;-77
2024/03/16 10:58:43;;;;;;;1.67;1.50;;;11.80;99.90;;;;;;4968668;28;20755;-76
2024/03/16 11:01:18;;;;;;;1.80;1.70;;;11.90;99.90;;;;;;4981916;28;20472;-76
2024/03/16 11:03:44;;;;;;;2.30;1.70;;;11.80;99.90;;;;;;4985662;28;20557;-77
2024/03/16 11:06:21;;;;;;;3.57;1.90;;;11.80;99.90;;;;;;4983205;28;20552;-77
2024/03/16 11:08:50;;;;;;;2.20;2.00;;;11.90;99.90;;;;;;4959183;28;20239;-76
2024/03/16 11:11:18;;;;;;;1.73;1.63;;;11.90;99.90;;;;;;4982760;28;20495;-76
2024/03/16 11:13:56;;;;;;;1.60;1.50;;;11.90;99.90;;;;;;4984847;28;20469;-77
2024/03/16 11:16:29;;;;;;;1.60;1.50;;;11.90;99.90;;;;;;4981300;28;20480;-75
2024/03/16 11:18:56;;;;;;;1.77;1.50;;;11.80;99.90;;;;;;4981469;28;20485;-76
2024/03/16 11:21:22;;;;;;;1.63;1.53;;;11.90;99.90;;;;;;4983492;28;20479;-76
2024/03/16 11:23:48;;;;;;;2.23;1.83;;;12.00;99.90;;;;;;4980984;28;20483;-75
2024/03/16 11:26:26;;;;;;;1.90;1.73;;;12.00;99.90;;;;;;4975426;28;20480;-77
2024/03/16 11:29:15;;;;;;;3.07;1.73;;;12.10;99.90;;;;;;4969661;28;20512;-76
2024/03/16 11:31:44;;;;;;;1.70;1.47;;;12.10;99.90;;;;;;4957911;28;20457;-76
2024/03/16 11:34:14;;;;;;;3.93;1.57;;;12.20;99.90;;;;;;4963211;28;20564;-76
2024/03/16 11:36:49;;;;;;;2.03;1.90;;;12.20;99.90;;;;;;4977646;28;20905;-76
2024/03/16 11:39:28;;;;;;;2.17;1.70;;;12.10;99.90;;;;;;4958530;28;20484;-76
2024/03/16 11:41:58;;;;;;;1.43;1.33;;;12.10;99.90;;;;;;4975581;28;20461;-76
2024/03/16 11:44:24;;;;;;;1.37;1.27;;;12.10;99.90;;;;;;4979397;28;20492;-76
2024/03/16 11:46:52;;;;;;;1.33;1.23;;;12.20;99.90;;;;;;4962237;28;20964;-76
2024/03/16 11:49:18;;;;;;;1.23;1.13;;;12.20;99.90;;;;;;4971969;28;20460;-76
2024/03/16 11:51:48;;;;;;;1.97;1.60;;;12.20;99.90;;;;;;4965553;28;20456;-77
2024/03/16 11:54:17;;;;;;;2.50;1.27;;;12.20;99.90;;;;;;4968774;28;20457;-76
2024/03/16 11:56:43;;;;;;;1.83;1.40;;;12.10;99.90;;;;;;4971976;28;20460;-76
2024/03/16 11:59:13;;;;;;;2.20;1.40;;;12.20;99.90;;;;;;4978300;28;20452;-76
2024/03/16 12:01:42;;;;;;;1.87;1.53;;;12.20;99.90;;;;;;4973988;28;20458;-76
2024/03/16 12:04:10;;;;;;;1.40;1.30;;;12.10;99.90;;;;;;4972856;28;20488;-77
2024/03/16 12:06:37;;;;;;;1.43;1.33;;;12.00;99.90;;;;;;4980298;28;20461;-76
2024/03/16 12:09:04;;;;;;;3.90;1.77;;;12.00;99.90;;;;;;4962027;28;20552;-75
2024/03/16 12:11:32;;;;;;;1.73;1.40;;;12.00;99.90;;;;;;4950790;28;20963;-76
2024/03/16 12:14:23;;;;;;;1.50;1.40;;;12.00;99.90;;;;;;4971208;28;20469;-76
2024/03/16 12:16:49;;;;;;;1.47;1.30;;;12.00;99.90;;;;;;4958453;28;20457;-76
2024/03/16 12:19:16;;;;;;;1.43;1.33;;;11.90;99.90;;;;;;4974090;28;20459;-76
2024/03/16 12:21:49;;;;;;;1.07;1.07;;;11.90;99.90;;;;;;4963708;28;20305;-76
2024/03/16 12:24:19;;;;;;;1.67;1.20;;;11.90;99.90;;;;;;4970546;28;20647;-76
2024/03/16 12:26:46;;;;;;;1.30;1.20;;;11.90;99.90;;;;;;4965230;28;20455;-77
2024/03/16 12:29:17;;;;;;;1.20;1.10;;;11.90;99.90;;;;;;4973694;28;20462;-76
2024/03/16 12:31:44;;;;;;;1.30;1.20;;;11.80;99.90;;;;;;4966908;28;20482;-76
2024/03/16 12:34:12;;;;;;;1.30;1.13;;;11.80;99.90;;;;;;4970044;28;20465;-75
2024/03/16 12:36:38;;;;;;;1.43;1.10;;;11.70;99.90;;;;;;4976146;28;20461;-74
2024/03/16 12:39:07;;;;;;;1.07;1.03;;;11.70;99.90;;;;;;4976396;28;20457;-74
2024/03/16 12:41:37;;;;;;;1.30;1.20;;;11.90;99.90;;;;;;4978668;28;20226;-75
2024/03/16 12:44:03;;;;;;;1.00;1.00;;;11.90;99.90;;;;;;4961725;28;20512;-74
2024/03/16 12:46:30;;;;;;;1.30;1.00;;;11.80;99.90;;;;;;4980960;28;20527;-76
2024/03/16 12:48:56;;;;;;;2.70;1.13;;;11.80;99.90;;;;;;4970431;28;20492;-75
2024/03/16 12:51:22;;;;;;;1.50;1.40;;;11.80;99.90;;;;;;4976339;28;20994;-76